Airfield :
LOGIN :

Register | Disclaimer

   EN    FR    IT 

 










Legend :    VFR   Marginal VFR   IFR   Intensive IFR   Very Intensive IFR
Visi :
Ceiling :
>= 8 km
>= 3000ft
5 to 8 km
1000 to 3000 ft
1500m to 5 km
500 to 1000 ft
800 to 1500m
200 to 500 ft
< 800m
< 200 ft
Symbols :   Thunderstorms  Fog  Heavy snow  Heavy precipitations  Wind > 20 kt
SIGMETs :     Misc.  Thunderstorms  Icing  Turbulence  Mountain Waves  Volcanic Ashes







- Airport Elevation : 124 ft
- IATA code : AVN
- Download approach charts


LFMV - Avignon Caumont

CURRENT METAR :
  • 222300Z AUTO 34009KT CAVOK 17/07 Q1016

EXPIRED METARs :
  • 222230Z AUTO 34012KT CAVOK 18/06 Q1015
  • 222200Z AUTO 34014KT CAVOK 19/06 Q1015
  • 222130Z AUTO 34013KT CAVOK 19/06 Q1015
  • 222100Z AUTO 34012KT CAVOK 19/06 Q1016
  • 222030Z AUTO 34012KT CAVOK 20/06 Q1015
  • 222000Z AUTO 35012KT CAVOK 21/06 Q1015 TEMPO 34016G27KT

TAF AMD TAF LFMV
Valid from the 22 at 16:00 until the 23 at 15:00 UTC


221614Z 2216/2315 35015KT CAVOK
TEMPO 2216/2221 34016G27KT
BECMG 2303/2305 35005KT
BECMG 2306/2308 VRB03KT
ATIS : +33 4 90 84 32 84
No reported NOTAMs for that airfield.



MET'MAP, your aeronautical weather chart ! - Copyright ORBIFLY December 2007 - Disclaimer

ORBIFLY MET'MAP TEAM :

Programming & Development : Alexandra Zaïnal
Concept & Development : Baudouin d'Aumeries
Co-Development & Prog : Marc-Olivier Méhu
Technical & hardware support : Manuel Goepfert

Contact : metmap@orbifly.com




SOURCES & CREDITS :

   NOAA